Lock Haven, Pennsylvania
Current Conditions -  °F | °C
As of 11:54 AM on Thursday 23 Oct 2014 (Local Time) from KIPT Reporting Station
Overcast Overcast  
Wind Chill: 55°   Ceiling: 2800
Heat Index: 55°   Visibility: 10mi
Dew Point: 42°   Wind: 15mph
Humidity: 62%   Direction: 320°NW
Pressure: 29.9"   Gusts: 23mph
Location:  41.14°N, 77.44°W
Report Text: KIPT 231554Z 32013G20KT 10SM OVC028 13/06 A2990 RMK AO2 SLP126 T01280056
Loading
Personal Weather Stations






























Interactive Weather Map
Tropical Storm Tracking
New forecast layout! Learn more

10-Day Weather Forecast

Advertisements
Track Severe Weather on mobile